Time;durP1;ratioP1;P1;durP2;ratioP2;P2;SDS_P1;SDS_P2;PMS_P1;PMS_P2;Temp;Humidity;BMP_temperature;BMP_pressure;BME280_temperature;BME280_humidity;BME280_pressure;Samples;Min_cycle;Max_cycle;Signal;HPM_P1;HPM_P2
2023/12/07 00:01:03;;;;;;;8.40;7.60;;;3.60;99.90;;;;;;4963780;28;20026;-78
2023/12/07 00:03:29;;;;;;;10.25;9.00;;;3.60;99.90;;;;;;4964977;28;20035;-78
2023/12/07 00:05:55;;;;;;;9.70;8.75;;;3.60;99.90;;;;;;4961336;28;20031;-78
2023/12/07 00:08:21;;;;;;;8.98;8.07;;;3.50;99.90;;;;;;4966238;28;20034;-78
2023/12/07 00:10:46;;;;;;;11.60;8.57;;;3.50;99.90;;;;;;4964576;28;20034;-78
2023/12/07 00:13:12;;;;;;;9.40;8.40;;;3.50;99.90;;;;;;4964921;28;20031;-78
2023/12/07 00:15:38;;;;;;;8.95;8.15;;;3.60;99.90;;;;;;4967558;28;20513;-78
2023/12/07 00:18:03;;;;;;;8.45;7.65;;;3.70;99.90;;;;;;4952812;28;20385;-78
2023/12/07 00:20:30;;;;;;;10.27;7.40;;;3.70;99.90;;;;;;4964821;28;20046;-78
2023/12/07 00:22:55;;;;;;;7.70;6.80;;;3.80;99.90;;;;;;4949020;28;20035;-78
2023/12/07 00:25:21;;;;;;;9.23;7.47;;;3.60;99.90;;;;;;4964119;28;20385;-78
2023/12/07 00:27:48;;;;;;;8.80;7.90;;;3.70;99.90;;;;;;4954490;28;20496;-78
2023/12/07 00:30:13;;;;;;;9.30;7.10;;;3.70;99.90;;;;;;4945350;28;20445;-79
2023/12/07 00:32:43;;;;;;;8.65;7.88;;;3.70;99.90;;;;;;4964871;28;20150;-78
2023/12/07 00:35:09;;;;;;;8.63;7.55;;;3.70;99.90;;;;;;4962611;28;20436;-78
2023/12/07 00:37:34;;;;;;;10.55;7.43;;;3.70;99.90;;;;;;4950224;28;20375;-78
2023/12/07 00:40:01;;;;;;;8.15;7.45;;;3.60;99.90;;;;;;4968349;28;20053;-78
2023/12/07 00:42:27;;;;;;;8.32;7.25;;;3.60;99.90;;;;;;4964825;28;20026;-78
2023/12/07 00:44:53;;;;;;;7.40;6.45;;;3.60;99.90;;;;;;4961243;28;20481;-78
2023/12/07 00:47:19;;;;;;;9.63;7.07;;;3.50;99.90;;;;;;4965927;28;20066;-78
2023/12/07 00:49:45;;;;;;;7.47;6.60;;;3.50;99.90;;;;;;4944892;28;20050;-78
2023/12/07 00:52:10;;;;;;;9.20;6.65;;;3.40;99.90;;;;;;4964916;28;20043;-78
2023/12/07 00:54:36;;;;;;;8.60;7.32;;;3.40;99.90;;;;;;4948215;28;20031;-79
2023/12/07 00:57:02;;;;;;;7.15;6.53;;;3.40;99.90;;;;;;4947123;28;20556;-78
2023/12/07 00:59:33;;;;;;;7.72;6.85;;;3.50;99.90;;;;;;4964404;28;20031;-78
2023/12/07 01:02:02;;;;;;;6.85;6.35;;;3.40;99.90;;;;;;4963285;28;20023;-78
2023/12/07 01:04:28;;;;;;;7.70;6.50;;;3.50;99.90;;;;;;4964046;28;20050;-78
2023/12/07 01:06:54;;;;;;;6.95;6.20;;;3.50;99.90;;;;;;4964176;28;20028;-79
2023/12/07 01:09:20;;;;;;;8.82;6.25;;;3.40;99.90;;;;;;4965267;28;20034;-78
2023/12/07 01:11:45;;;;;;;6.18;5.65;;;3.40;99.90;;;;;;4947447;28;20038;-78
2023/12/07 01:14:12;;;;;;;6.57;6.07;;;3.40;99.90;;;;;;4966322;28;20085;-78
2023/12/07 01:16:37;;;;;;;9.32;6.57;;;3.40;99.90;;;;;;4952975;28;20125;-78
2023/12/07 01:19:03;;;;;;;7.38;6.68;;;3.30;99.90;;;;;;4964563;28;20118;-78
2023/12/07 01:21:29;;;;;;;7.93;7.13;;;3.30;99.90;;;;;;4967972;28;20027;-78
2023/12/07 01:23:54;;;;;;;7.50;6.30;;;3.30;99.90;;;;;;4964327;28;20034;-78
2023/12/07 01:26:20;;;;;;;8.52;6.85;;;3.30;99.90;;;;;;4969123;28;20057;-78
2023/12/07 01:28:46;;;;;;;9.63;7.38;;;3.40;99.90;;;;;;4947698;28;20035;-78
2023/12/07 01:31:12;;;;;;;8.07;7.28;;;3.30;99.90;;;;;;4967994;28;20477;-78
2023/12/07 01:33:37;;;;;;;7.05;6.43;;;3.20;99.90;;;;;;4965868;28;20054;-78
2023/12/07 01:36:03;;;;;;;7.88;7.07;;;3.30;99.90;;;;;;4957453;28;20481;-78
2023/12/07 01:38:29;;;;;;;8.25;7.45;;;3.30;99.90;;;;;;4957203;28;20031;-78
2023/12/07 01:40:55;;;;;;;11.02;8.57;;;3.20;99.90;;;;;;4962510;28;20031;-78
2023/12/07 01:43:22;;;;;;;12.57;8.95;;;3.20;99.90;;;;;;4955414;28;20477;-78
2023/12/07 01:45:50;;;;;;;11.82;8.45;;;3.20;99.90;;;;;;4964195;28;20031;-78
2023/12/07 01:48:16;;;;;;;10.75;8.68;;;3.10;99.90;;;;;;4949371;28;20053;-79
2023/12/07 01:50:41;;;;;;;10.25;9.25;;;3.20;99.90;;;;;;4947464;28;20544;-78
2023/12/07 01:53:08;;;;;;;10.40;8.55;;;3.20;99.90;;;;;;4967499;28;20043;-78
2023/12/07 01:55:34;;;;;;;8.82;7.70;;;3.20;99.90;;;;;;4966028;28;20035;-78
2023/12/07 01:58:00;;;;;;;9.52;8.05;;;3.20;99.90;;;;;;4967514;28;20035;-78
2023/12/07 02:00:27;;;;;;;8.90;8.00;;;3.30;99.90;;;;;;4946583;28;20046;-78
2023/12/07 02:02:53;;;;;;;9.20;8.30;;;3.30;99.90;;;;;;4967421;28;20023;-78
2023/12/07 02:05:19;;;;;;;8.90;8.00;;;3.30;99.90;;;;;;4963645;28;20430;-78
2023/12/07 02:07:46;;;;;;;9.40;8.48;;;3.20;99.90;;;;;;4954421;28;20118;-78
2023/12/07 02:10:13;;;;;;;10.02;8.85;;;3.20;99.90;;;;;;4966979;28;20033;-78
2023/12/07 02:12:39;;;;;;;13.15;8.88;;;3.20;99.90;;;;;;4949130;28;20029;-78
2023/12/07 02:15:07;;;;;;;9.05;8.25;;;3.20;99.90;;;;;;4947630;28;20027;-77
2023/12/07 02:18:08;;;;;;;8.88;7.97;;;3.20;99.90;;;;;;4951858;28;20461;-78
2023/12/07 02:20:43;;;;;;;7.72;7.03;;;3.10;99.90;;;;;;4932466;28;20520;-78
2023/12/07 02:23:13;;;;;;;12.85;7.93;;;3.10;99.90;;;;;;4948499;29;20027;-78
2023/12/07 02:26:22;;;;;;;8.60;7.30;;;3.10;99.90;;;;;;4965147;28;20031;-79
2023/12/07 02:28:47;;;;;;;10.35;8.32;;;3.20;99.90;;;;;;4966609;28;20035;-78
2023/12/07 02:31:13;;;;;;;10.70;8.18;;;3.20;99.90;;;;;;4949920;28;20042;-78
2023/12/07 02:33:39;;;;;;;8.27;7.45;;;3.20;99.90;;;;;;4966380;28;21188;-78
2023/12/07 02:36:05;;;;;;;9.27;7.13;;;3.20;99.90;;;;;;4964631;28;20054;-78
2023/12/07 02:38:31;;;;;;;8.38;7.68;;;3.20;99.90;;;;;;4963987;28;20527;-79
2023/12/07 02:40:59;;;;;;;9.40;7.60;;;3.20;99.90;;;;;;4952731;28;20385;-79
2023/12/07 02:43:25;;;;;;;10.93;7.78;;;3.20;99.90;;;;;;4948675;28;20073;-78
2023/12/07 02:45:51;;;;;;;7.82;7.03;;;3.20;99.90;;;;;;4963929;28;20027;-78
2023/12/07 02:48:17;;;;;;;7.88;7.07;;;3.20;99.90;;;;;;4953428;29;20154;-78
2023/12/07 02:50:43;;;;;;;7.93;6.82;;;3.20;99.90;;;;;;4965535;28;20113;-78
2023/12/07 02:53:09;;;;;;;6.70;6.20;;;3.20;99.90;;;;;;4965744;28;20498;-79
2023/12/07 02:55:34;;;;;;;9.15;6.80;;;3.20;99.90;;;;;;4964176;28;20034;-78
2023/12/07 02:58:00;;;;;;;8.05;7.25;;;3.20;99.90;;;;;;4968903;28;20199;-78
2023/12/07 03:00:26;;;;;;;8.55;7.38;;;3.20;99.90;;;;;;4947916;28;20030;-78
2023/12/07 03:02:51;;;;;;;9.18;6.97;;;3.20;99.90;;;;;;4963877;28;20049;-78
2023/12/07 03:05:19;;;;;;;10.18;7.78;;;3.20;99.90;;;;;;4965753;28;20500;-78
2023/12/07 03:07:45;;;;;;;7.93;7.15;;;3.10;99.90;;;;;;4969499;28;20485;-78
2023/12/07 03:10:11;;;;;;;7.30;6.45;;;3.10;99.90;;;;;;4965740;28;20031;-78
2023/12/07 03:12:36;;;;;;;8.02;7.28;;;3.20;99.90;;;;;;4964795;28;20019;-78
2023/12/07 03:15:02;;;;;;;8.27;7.50;;;3.20;99.90;;;;;;4946503;28;20023;-79
2023/12/07 03:17:28;;;;;;;8.20;7.38;;;3.20;99.90;;;;;;4948656;28;20485;-78
2023/12/07 03:19:54;;;;;;;9.20;6.55;;;3.20;99.90;;;;;;4962877;28;20019;-78
2023/12/07 03:22:19;;;;;;;8.63;7.68;;;3.20;99.90;;;;;;4966208;28;20022;-78
2023/12/07 03:24:50;;;;;;;9.10;7.85;;;3.20;99.90;;;;;;4969670;28;20038;-78
2023/12/07 03:27:16;;;;;;;8.38;7.57;;;3.10;99.90;;;;;;4966086;28;20509;-78
2023/12/07 03:29:41;;;;;;;8.65;7.75;;;3.10;99.90;;;;;;4965032;28;20023;-78
2023/12/07 03:32:07;;;;;;;10.20;8.43;;;3.20;99.90;;;;;;4948497;28;20046;-78
2023/12/07 03:34:33;;;;;;;9.60;8.70;;;3.10;99.90;;;;;;4962980;28;20489;-78
2023/12/07 03:36:58;;;;;;;11.25;9.80;;;3.10;99.90;;;;;;4947674;28;20024;-78
2023/12/07 03:39:25;;;;;;;13.07;11.57;;;3.10;99.90;;;;;;4965125;28;20023;-78
2023/12/07 03:41:51;;;;;;;11.98;8.70;;;3.00;99.90;;;;;;4964634;28;20050;-78
2023/12/07 03:44:17;;;;;;;6.13;5.63;;;3.00;99.90;;;;;;4961889;28;20486;-78
2023/12/07 03:46:43;;;;;;;6.25;5.65;;;3.10;99.90;;;;;;4948492;28;20020;-78
2023/12/07 03:49:09;;;;;;;7.68;6.85;;;3.10;99.90;;;;;;4964954;28;20388;-78
2023/12/07 03:51:36;;;;;;;8.30;6.72;;;3.10;99.90;;;;;;4965921;28;20029;-78
2023/12/07 03:54:03;;;;;;;9.55;6.50;;;3.00;99.90;;;;;;4967084;28;20046;-78
2023/12/07 03:56:30;;;;;;;8.73;6.63;;;2.90;99.90;;;;;;4965610;28;20023;-77
2023/12/07 03:58:56;;;;;;;6.60;5.22;;;2.90;99.90;;;;;;4962708;28;20030;-78
2023/12/07 04:01:26;;;;;;;8.57;5.65;;;2.90;99.90;;;;;;4965789;28;20078;-78
2023/12/07 04:03:53;;;;;;;8.13;7.00;;;2.80;99.90;;;;;;4946883;28;20031;-78
2023/12/07 04:06:18;;;;;;;7.20;6.53;;;2.80;99.90;;;;;;4965278;28;20030;-78
2023/12/07 04:08:46;;;;;;;7.85;7.10;;;2.80;99.90;;;;;;4964996;28;20499;-78
2023/12/07 04:11:12;;;;;;;8.68;7.75;;;2.70;99.90;;;;;;4968102;28;20077;-78
2023/12/07 04:13:38;;;;;;;10.20;7.72;;;2.50;99.20;;;;;;4954885;28;20031;-78
2023/12/07 04:16:04;;;;;;;10.35;6.60;;;2.40;99.90;;;;;;4947250;28;20019;-78
2023/12/07 04:18:29;;;;;;;9.73;7.80;;;2.30;99.90;;;;;;4964341;28;20097;-78
2023/12/07 04:20:55;;;;;;;9.60;8.43;;;2.40;99.90;;;;;;4964964;28;20027;-78
2023/12/07 04:23:21;;;;;;;10.13;8.80;;;2.30;99.90;;;;;;4967918;28;20110;-78
2023/12/07 04:25:47;;;;;;;11.07;9.13;;;2.30;99.90;;;;;;4961939;28;20090;-78
2023/12/07 04:28:12;;;;;;;9.93;8.90;;;2.30;99.90;;;;;;4964294;28;20046;-78
2023/12/07 04:30:38;;;;;;;10.47;9.37;;;2.30;99.90;;;;;;4967559;28;20030;-78
2023/12/07 04:33:04;;;;;;;9.50;8.60;;;2.40;99.90;;;;;;4963507;28;20079;-78
2023/12/07 04:35:30;;;;;;;10.05;8.70;;;2.30;99.90;;;;;;4964352;28;20504;-78
2023/12/07 04:37:56;;;;;;;9.25;8.32;;;2.30;99.90;;;;;;4967086;28;20035;-78
2023/12/07 04:40:24;;;;;;;9.43;8.60;;;2.30;99.90;;;;;;4965423;28;20035;-78
2023/12/07 04:42:49;;;;;;;8.80;8.00;;;2.20;99.90;;;;;;4964482;28;20030;-78
2023/12/07 04:45:15;;;;;;;9.77;8.73;;;2.30;99.90;;;;;;4947332;28;20031;-78
2023/12/07 04:47:41;;;;;;;8.93;8.13;;;2.10;99.90;;;;;;4968886;28;20453;-78
2023/12/07 04:50:07;;;;;;;11.70;8.30;;;2.10;99.90;;;;;;4969088;28;20055;-78
2023/12/07 04:52:33;;;;;;;9.10;8.20;;;2.20;99.90;;;;;;4949911;29;20031;-78
2023/12/07 04:54:59;;;;;;;10.43;8.18;;;2.30;99.90;;;;;;4966570;28;20028;-78
2023/12/07 04:57:25;;;;;;;10.80;8.73;;;2.20;99.90;;;;;;4968682;28;20027;-78
2023/12/07 04:59:51;;;;;;;9.80;8.27;;;2.10;99.90;;;;;;4950094;28;20121;-78
2023/12/07 05:02:17;;;;;;;11.83;10.07;;;2.20;99.90;;;;;;4955585;28;20121;-78
2023/12/07 05:04:44;;;;;;;9.37;8.53;;;2.00;99.90;;;;;;4968129;28;20035;-79
2023/12/07 05:07:13;;;;;;;10.38;8.85;;;2.10;99.90;;;;;;4954509;28;20034;-78
2023/12/07 05:09:40;;;;;;;9.27;8.37;;;2.00;99.90;;;;;;4971243;28;20034;-78
2023/12/07 05:12:06;;;;;;;10.70;9.07;;;2.00;99.90;;;;;;4969317;28;20462;-78
2023/12/07 05:14:32;;;;;;;13.40;10.63;;;2.00;99.90;;;;;;4966777;28;20031;-78
2023/12/07 05:16:59;;;;;;;15.67;12.80;;;2.00;99.90;;;;;;4964211;28;20265;-78
2023/12/07 05:19:25;;;;;;;15.50;13.13;;;2.00;99.90;;;;;;4967916;28;20027;-78
2023/12/07 05:21:53;;;;;;;16.10;11.97;;;2.10;99.90;;;;;;4963729;28;20038;-78
2023/12/07 05:24:19;;;;;;;14.47;11.40;;;2.00;99.90;;;;;;4967474;28;20385;-78
2023/12/07 05:26:46;;;;;;;13.17;11.40;;;1.90;99.90;;;;;;4967306;28;20486;-78
2023/12/07 05:29:12;;;;;;;14.23;11.37;;;1.90;99.90;;;;;;4950654;28;20101;-78
2023/12/07 05:31:38;;;;;;;15.17;11.97;;;2.00;99.90;;;;;;4967399;28;20430;-78
2023/12/07 05:34:05;;;;;;;15.87;12.20;;;1.90;99.90;;;;;;4947456;28;20050;-79
2023/12/07 05:36:31;;;;;;;20.83;12.27;;;1.90;99.90;;;;;;4970130;28;20042;-78
2023/12/07 05:38:57;;;;;;;13.30;11.77;;;2.00;99.90;;;;;;4949382;28;20027;-78
2023/12/07 05:41:22;;;;;;;16.93;12.63;;;2.00;99.90;;;;;;4963314;28;20037;-78
2023/12/07 05:43:48;;;;;;;16.53;12.47;;;2.10;99.90;;;;;;4966677;28;20480;-78
2023/12/07 05:46:15;;;;;;;14.60;12.33;;;2.00;99.90;;;;;;4967781;28;20105;-78
2023/12/07 05:48:41;;;;;;;16.57;13.13;;;2.00;99.90;;;;;;4957970;28;20081;-79
2023/12/07 05:51:13;;;;;;;22.27;14.27;;;2.00;99.90;;;;;;4949939;28;20437;-78
2023/12/07 05:53:38;;;;;;;15.52;13.13;;;2.00;99.90;;;;;;4963373;28;20500;-78
2023/12/07 05:56:04;;;;;;;22.00;13.30;;;1.90;99.90;;;;;;4966962;28;20102;-78
2023/12/07 05:58:30;;;;;;;16.97;11.97;;;1.90;99.90;;;;;;4969738;28;20118;-78
2023/12/07 06:00:56;;;;;;;23.17;14.77;;;1.80;99.90;;;;;;4966939;28;20110;-78
2023/12/07 06:03:22;;;;;;;25.87;13.53;;;1.80;99.90;;;;;;4948287;28;20122;-78
2023/12/07 06:05:49;;;;;;;17.47;13.83;;;1.90;99.90;;;;;;4955096;28;20541;-78
2023/12/07 06:08:14;;;;;;;21.93;13.97;;;1.80;99.90;;;;;;4970831;28;20362;-78
2023/12/07 06:10:40;;;;;;;21.30;13.73;;;1.70;99.90;;;;;;4967524;28;20089;-78
2023/12/07 06:13:06;;;;;;;22.90;14.23;;;1.80;99.90;;;;;;4974760;28;20392;-78
2023/12/07 06:15:31;;;;;;;20.67;14.13;;;1.80;99.90;;;;;;4964053;28;20875;-78
2023/12/07 06:17:58;;;;;;;23.20;15.83;;;1.80;99.90;;;;;;4968414;28;20079;-78
2023/12/07 06:20:24;;;;;;;29.93;14.33;;;1.80;99.90;;;;;;4966720;28;20031;-78
2023/12/07 06:22:49;;;;;;;18.90;16.13;;;1.80;99.90;;;;;;4974693;28;20027;-78
2023/12/07 06:25:16;;;;;;;22.77;15.47;;;1.80;99.90;;;;;;4970083;28;20031;-78
2023/12/07 06:27:41;;;;;;;19.83;16.33;;;1.60;99.90;;;;;;4969651;28;20053;-78
2023/12/07 06:30:07;;;;;;;23.93;18.20;;;1.60;99.90;;;;;;4946541;28;20027;-78
2023/12/07 06:32:33;;;;;;;21.40;18.33;;;1.70;99.90;;;;;;4953069;29;20047;-78
2023/12/07 06:35:00;;;;;;;21.50;16.60;;;1.80;99.90;;;;;;4947246;28;20490;-78
2023/12/07 06:37:26;;;;;;;20.20;16.77;;;1.70;99.90;;;;;;4949746;28;20031;-78
2023/12/07 06:39:52;;;;;;;21.60;16.63;;;1.80;99.90;;;;;;4948168;28;20042;-78
2023/12/07 06:42:18;;;;;;;26.30;18.23;;;1.90;99.90;;;;;;4947448;29;20035;-79
2023/12/07 06:44:46;;;;;;;17.03;15.23;;;2.10;99.90;;;;;;4944152;29;20024;-79
2023/12/07 06:47:12;;;;;;;18.70;15.13;;;2.00;99.90;;;;;;4946329;28;20031;-78
2023/12/07 06:49:37;;;;;;;17.03;15.33;;;2.00;99.90;;;;;;4946982;29;20038;-78
2023/12/07 06:52:03;;;;;;;19.77;15.97;;;1.90;99.90;;;;;;4942136;29;20035;-78
2023/12/07 06:54:29;;;;;;;18.77;16.40;;;1.90;99.90;;;;;;4945784;29;20031;-79
2023/12/07 06:56:54;;;;;;;19.73;17.47;;;1.70;99.90;;;;;;4948254;28;20023;-79
2023/12/07 06:59:21;;;;;;;21.47;17.53;;;1.80;99.90;;;;;;4951491;29;20414;-79
2023/12/07 07:01:46;;;;;;;25.53;18.03;;;1.80;99.90;;;;;;4950486;28;20031;-78
2023/12/07 07:04:12;;;;;;;29.63;18.00;;;1.80;99.90;;;;;;4943572;29;20055;-79
2023/12/07 07:06:39;;;;;;;30.83;17.97;;;1.90;99.90;;;;;;4946437;29;20058;-78
2023/12/07 07:09:05;;;;;;;23.13;17.17;;;1.80;99.90;;;;;;4944224;28;20024;-78
2023/12/07 07:11:31;;;;;;;27.90;16.47;;;1.80;99.90;;;;;;4945626;28;20441;-79
2023/12/07 07:13:56;;;;;;;27.07;17.20;;;2.00;99.90;;;;;;4949352;29;20019;-78
2023/12/07 07:16:22;;;;;;;26.83;16.63;;;2.00;99.90;;;;;;4948087;28;20389;-78
2023/12/07 07:18:48;;;;;;;25.97;17.13;;;2.00;99.90;;;;;;4947951;28;20023;-78
2023/12/07 07:21:13;;;;;;;25.97;19.00;;;2.00;99.90;;;;;;4929442;29;20027;-78
2023/12/07 07:23:39;;;;;;;27.90;19.33;;;2.00;99.90;;;;;;4945674;29;20286;-78
2023/12/07 07:26:05;;;;;;;31.00;20.47;;;2.00;99.90;;;;;;4941212;29;20429;-78
2023/12/07 07:28:31;;;;;;;28.53;18.03;;;2.00;99.90;;;;;;4952674;29;20031;-78
2023/12/07 07:30:56;;;;;;;23.47;19.53;;;2.00;99.90;;;;;;4942041;29;20066;-78
2023/12/07 07:33:22;;;;;;;29.97;19.30;;;2.00;99.90;;;;;;4951514;29;20055;-78
2023/12/07 07:35:48;;;;;;;28.97;21.00;;;2.10;99.90;;;;;;4944615;28;20037;-78
2023/12/07 07:38:14;;;;;;;30.87;19.87;;;2.10;99.90;;;;;;4948477;28;20083;-78
2023/12/07 07:40:40;;;;;;;21.67;18.17;;;2.20;99.90;;;;;;4947592;29;20031;-78
2023/12/07 07:43:06;;;;;;;21.37;17.80;;;2.30;99.90;;;;;;4941449;29;20055;-79
2023/12/07 07:45:31;;;;;;;23.50;18.00;;;2.30;99.90;;;;;;4945864;29;20034;-78
2023/12/07 07:47:57;;;;;;;20.87;17.30;;;2.30;99.90;;;;;;4946564;28;20028;-78
2023/12/07 07:50:23;;;;;;;25.03;18.93;;;2.30;99.90;;;;;;4943499;29;20027;-78
2023/12/07 07:52:48;;;;;;;24.67;18.83;;;2.40;99.90;;;;;;4950284;28;20027;-78
2023/12/07 07:55:14;;;;;;;30.57;19.13;;;2.40;99.90;;;;;;4946393;29;20481;-78
2023/12/07 07:57:40;;;;;;;24.00;19.63;;;2.50;99.90;;;;;;4946132;29;20082;-78
2023/12/07 08:00:08;;;;;;;26.90;22.33;;;2.50;99.90;;;;;;4942561;29;20039;-78
2023/12/07 08:02:34;;;;;;;28.60;24.00;;;2.60;99.90;;;;;;4951854;28;20027;-78
2023/12/07 08:04:59;;;;;;;25.00;22.20;;;2.60;99.90;;;;;;4944722;28;20450;-78
2023/12/07 08:07:25;;;;;;;28.50;23.73;;;2.70;99.90;;;;;;4948839;28;20105;-78
2023/12/07 08:09:51;;;;;;;31.42;24.13;;;2.70;99.90;;;;;;4945583;28;20497;-78
2023/12/07 08:12:17;;;;;;;30.43;24.17;;;2.80;99.90;;;;;;4942061;29;20020;-78
2023/12/07 08:14:44;;;;;;;28.65;22.35;;;2.90;99.90;;;;;;4943027;29;20082;-79
2023/12/07 08:17:11;;;;;;;29.77;23.48;;;2.90;99.90;;;;;;4946365;28;20071;-79
2023/12/07 08:19:37;;;;;;;28.92;22.17;;;3.00;99.90;;;;;;4952105;29;20031;-79
2023/12/07 08:22:04;;;;;;;25.58;21.00;;;3.00;99.90;;;;;;4957194;28;20034;-78
2023/12/07 08:24:29;;;;;;;26.35;22.63;;;3.10;99.90;;;;;;4948414;28;20398;-79
2023/12/07 08:26:55;;;;;;;29.53;22.70;;;3.10;99.90;;;;;;4952751;28;20024;-78
2023/12/07 08:29:21;;;;;;;30.20;23.65;;;3.20;99.90;;;;;;4953082;29;20023;-78
2023/12/07 08:31:47;;;;;;;27.63;22.80;;;3.30;99.90;;;;;;4956467;28;20051;-78
2023/12/07 08:34:13;;;;;;;27.75;23.27;;;3.30;99.90;;;;;;4959560;28;20461;-78
2023/12/07 08:36:39;;;;;;;27.70;24.23;;;3.40;99.90;;;;;;4974296;28;20031;-78
2023/12/07 08:39:09;;;;;;;32.15;25.10;;;3.40;99.90;;;;;;4974769;28;20473;-78
2023/12/07 08:41:35;;;;;;;28.40;24.15;;;3.50;99.90;;;;;;4956660;28;20030;-78
2023/12/07 08:44:01;;;;;;;30.63;24.00;;;3.50;99.90;;;;;;4968017;28;20031;-78
2023/12/07 08:46:27;;;;;;;35.38;26.67;;;3.50;99.90;;;;;;4956415;28;20026;-78
2023/12/07 08:48:53;;;;;;;34.50;26.42;;;3.60;99.90;;;;;;4951252;28;20081;-78
2023/12/07 08:51:19;;;;;;;42.85;28.75;;;3.60;99.90;;;;;;4972863;28;20022;-78
2023/12/07 08:53:45;;;;;;;38.70;27.80;;;3.70;99.90;;;;;;4959827;28;20033;-78
2023/12/07 08:56:12;;;;;;;43.88;27.20;;;3.80;99.90;;;;;;4962203;28;20394;-78
2023/12/07 08:58:38;;;;;;;29.67;25.30;;;3.80;99.90;;;;;;4968458;28;20537;-78
2023/12/07 09:01:05;;;;;;;34.70;25.98;;;3.90;99.90;;;;;;4970956;28;20118;-78
2023/12/07 09:03:31;;;;;;;31.70;26.50;;;3.90;99.90;;;;;;4972966;28;20110;-78
2023/12/07 09:05:58;;;;;;;30.42;25.48;;;4.00;99.90;;;;;;4967503;28;20061;-78
2023/12/07 09:08:23;;;;;;;34.35;25.70;;;4.10;99.90;;;;;;4970162;28;20025;-78
2023/12/07 09:10:52;;;;;;;34.88;27.48;;;4.10;99.90;;;;;;4955341;28;20030;-78
2023/12/07 09:13:18;;;;;;;32.60;26.90;;;4.20;99.90;;;;;;4960130;28;20058;-78
2023/12/07 09:15:44;;;;;;;34.08;26.77;;;4.20;99.90;;;;;;4969061;28;20030;-78
2023/12/07 09:18:12;;;;;;;34.45;27.90;;;4.30;99.90;;;;;;4970584;28;20604;-78
2023/12/07 09:20:45;;;;;;;35.45;28.08;;;4.30;99.90;;;;;;4969579;28;20034;-78
2023/12/07 09:23:12;;;;;;;35.63;28.65;;;4.40;99.90;;;;;;4969985;28;20023;-78
2023/12/07 09:25:38;;;;;;;35.45;28.80;;;4.50;99.90;;;;;;4966621;28;20492;-78
2023/12/07 09:28:04;;;;;;;34.03;29.15;;;4.60;99.90;;;;;;4972957;28;20082;-78
2023/12/07 09:30:30;;;;;;;35.90;28.67;;;4.60;99.90;;;;;;4970678;28;20113;-79
2023/12/07 09:32:55;;;;;;;37.88;29.23;;;4.70;99.90;;;;;;4970024;28;20058;-78
2023/12/07 09:35:21;;;;;;;36.55;29.25;;;4.80;99.90;;;;;;4946036;28;20058;-78
2023/12/07 09:37:48;;;;;;;38.90;28.98;;;4.80;99.90;;;;;;4967800;28;20031;-78
2023/12/07 09:40:19;;;;;;;36.65;29.45;;;4.80;99.90;;;;;;4967250;28;20034;-78
2023/12/07 09:42:46;;;;;;;38.95;31.30;;;4.90;99.90;;;;;;4969748;28;20024;-78
2023/12/07 09:45:14;;;;;;;40.17;31.77;;;4.90;99.90;;;;;;4956539;28;20030;-78
2023/12/07 09:47:41;;;;;;;43.78;32.35;;;4.90;99.90;;;;;;4967896;28;20042;-78
2023/12/07 09:50:08;;;;;;;48.17;33.50;;;5.00;99.90;;;;;;4964853;28;20031;-78
2023/12/07 09:52:35;;;;;;;39.03;32.58;;;5.10;99.90;;;;;;4968929;28;20030;-78
2023/12/07 09:55:02;;;;;;;46.33;34.58;;;5.10;99.90;;;;;;4965334;28;20042;-78
2023/12/07 09:57:28;;;;;;;43.72;34.17;;;5.20;99.90;;;;;;4966700;28;20042;-77
2023/12/07 09:59:55;;;;;;;39.40;32.17;;;5.20;99.90;;;;;;4946640;28;20457;-77
2023/12/07 10:02:21;;;;;;;42.33;32.15;;;5.20;99.90;;;;;;4969681;28;20074;-77
2023/12/07 10:04:47;;;;;;;42.05;33.60;;;5.20;99.90;;;;;;4965987;28;20042;-77
2023/12/07 10:07:13;;;;;;;47.72;33.17;;;5.20;99.90;;;;;;4966703;28;20111;-77
2023/12/07 10:09:40;;;;;;;43.45;33.15;;;5.30;99.90;;;;;;4969544;28;20050;-77
2023/12/07 10:12:06;;;;;;;42.70;34.55;;;5.40;99.90;;;;;;4968536;28;20066;-77
2023/12/07 10:14:33;;;;;;;45.85;35.03;;;5.50;99.90;;;;;;4966413;28;20066;-77
2023/12/07 10:16:59;;;;;;;45.58;33.85;;;5.60;99.90;;;;;;4954777;28;20034;-77
2023/12/07 10:19:27;;;;;;;42.92;33.28;;;5.70;99.90;;;;;;4963452;28;20035;-77
2023/12/07 10:21:53;;;;;;;44.10;32.33;;;5.70;99.90;;;;;;4966289;28;20473;-77
2023/12/07 10:24:25;;;;;;;41.60;31.90;;;5.70;99.90;;;;;;4946459;28;20035;-77
2023/12/07 10:26:52;;;;;;;44.30;31.77;;;5.70;99.90;;;;;;4969350;28;20209;-77
2023/12/07 10:29:19;;;;;;;47.40;32.38;;;5.70;99.90;;;;;;4947341;29;20106;-78
2023/12/07 10:31:46;;;;;;;44.50;29.13;;;5.70;99.90;;;;;;4967149;28;20046;-77
2023/12/07 10:34:12;;;;;;;38.15;28.05;;;5.80;99.90;;;;;;4947014;29;20024;-77
2023/12/07 10:36:38;;;;;;;30.50;25.35;;;5.90;99.90;;;;;;4944620;29;20093;-77
2023/12/07 10:39:06;;;;;;;38.00;29.25;;;5.90;99.90;;;;;;4952186;29;20544;-78
2023/12/07 10:41:34;;;;;;;35.65;27.50;;;5.90;99.90;;;;;;4946926;29;20031;-77
2023/12/07 10:44:06;;;;;;;39.72;30.20;;;5.90;99.90;;;;;;4943613;28;20024;-77
2023/12/07 10:46:36;;;;;;;40.22;29.83;;;6.00;99.90;;;;;;4947079;29;20023;-78
2023/12/07 10:49:07;;;;;;;37.42;28.25;;;6.00;99.90;;;;;;4947490;29;20058;-77
2023/12/07 10:51:50;;;;;;;38.85;30.17;;;6.00;99.90;;;;;;4947549;28;20062;-77
2023/12/07 10:54:18;;;;;;;;;;;6.20;99.90;;;;;;4943977;29;20483;-78
2023/12/07 10:56:45;;;;;;;38.63;27.80;;;6.20;99.90;;;;;;4947205;29;19906;-78
2023/12/07 10:59:13;;;;;;;37.55;29.98;;;6.20;99.90;;;;;;4945492;29;20533;-78
2023/12/07 11:01:40;;;;;;;38.13;30.08;;;6.30;99.90;;;;;;4947018;29;20213;-78
2023/12/07 11:04:06;;;;;;;43.65;29.20;;;6.30;99.90;;;;;;4951328;29;20035;-78
2023/12/07 11:06:35;;;;;;;43.97;30.85;;;6.40;99.90;;;;;;4947360;28;20029;-77
2023/12/07 11:09:04;;;;;;;41.42;28.10;;;6.50;99.90;;;;;;4944561;29;20056;-77
2023/12/07 11:11:39;;;;;;;42.70;30.55;;;6.50;99.90;;;;;;4949316;28;20031;-78
2023/12/07 11:14:07;;;;;;;38.78;32.47;;;6.60;99.90;;;;;;4944453;29;20032;-77
2023/12/07 11:16:36;;;;;;;41.40;31.65;;;6.60;99.90;;;;;;4949584;28;20031;-78
2023/12/07 11:19:02;;;;;;;42.38;31.45;;;6.70;99.90;;;;;;4950741;29;20028;-78
2023/12/07 11:21:28;;;;;;;41.65;31.30;;;6.70;99.90;;;;;;4947715;28;20418;-78
2023/12/07 11:23:54;;;;;;;43.08;30.02;;;6.80;99.90;;;;;;4942890;29;20115;-78
2023/12/07 11:26:24;;;;;;;41.88;30.80;;;6.80;99.90;;;;;;4946039;29;20026;-78
2023/12/07 11:28:50;;;;;;;42.20;29.75;;;6.80;99.90;;;;;;4942470;28;20045;-78
2023/12/07 11:31:16;;;;;;;43.97;30.85;;;6.90;99.90;;;;;;4944703;29;20118;-78
2023/12/07 11:33:43;;;;;;;40.15;30.75;;;6.90;98.10;;;;;;4943944;29;20051;-78
2023/12/07 11:36:10;;;;;;;35.85;28.23;;;7.00;99.90;;;;;;4946043;29;20027;-78
2023/12/07 11:39:06;;;;;;;46.80;29.58;;;7.00;95.60;;;;;;4944625;28;20031;-78
2023/12/07 11:41:42;;;;;;;39.97;28.95;;;7.10;95.80;;;;;;4945831;29;20039;-78
2023/12/07 11:44:10;;;;;;;41.58;30.02;;;7.20;79.10;;;;;;4945788;28;20062;-78
2023/12/07 11:46:37;;;;;;;42.92;30.65;;;7.20;94.10;;;;;;4947673;28;20098;-78
2023/12/07 11:49:03;;;;;;;37.53;29.85;;;7.30;93.70;;;;;;4950498;29;20020;-77
2023/12/07 11:51:29;;;;;;;36.42;28.98;;;7.30;99.90;;;;;;4952736;28;20069;-78
2023/12/07 11:53:55;;;;;;;34.40;27.33;;;7.40;96.50;;;;;;4945738;29;20070;-78
2023/12/07 11:56:21;;;;;;;36.47;28.67;;;7.40;79.20;;;;;;4946969;28;20054;-78
2023/12/07 11:58:47;;;;;;;40.13;27.58;;;7.40;84.10;;;;;;4941372;29;20035;-78
2023/12/07 12:01:13;;;;;;;35.97;27.13;;;7.50;93.50;;;;;;4946797;28;20386;-78
2023/12/07 12:03:38;;;;;;;41.92;28.40;;;7.50;76.00;;;;;;4943806;28;20026;-78
2023/12/07 12:06:08;;;;;;;56.40;30.13;;;7.50;54.00;;;;;;4945355;28;20144;-78
2023/12/07 12:08:34;;;;;;;52.35;30.67;;;7.60;56.60;;;;;;4948115;28;20023;-78
2023/12/07 12:11:00;;;;;;;49.42;30.67;;;7.60;55.50;;;;;;4935440;29;20035;-78
2023/12/07 12:13:31;;;;;;;34.08;27.58;;;7.60;47.40;;;;;;4945287;28;20390;-78
2023/12/07 12:15:57;;;;;;;34.63;26.90;;;7.60;66.30;;;;;;4944134;29;20390;-78
2023/12/07 12:18:25;;;;;;;33.85;25.80;;;7.60;33.00;;;;;;4945937;29;20019;-78
2023/12/07 12:20:51;;;;;;;32.58;26.15;;;7.60;38.60;;;;;;4945396;29;20034;-78
2023/12/07 12:23:17;;;;;;;35.95;26.80;;;7.60;35.60;;;;;;4949574;29;20023;-78
2023/12/07 12:25:43;;;;;;;35.05;27.80;;;7.60;33.80;;;;;;4948458;29;20589;-78
2023/12/07 12:28:09;;;;;;;35.58;27.27;;;7.60;49.60;;;;;;4951087;29;20027;-78
2023/12/07 12:30:36;;;;;;;38.00;26.90;;;7.60;54.80;;;;;;4950492;29;20042;-78
2023/12/07 12:33:02;;;;;;;35.03;26.08;;;7.60;38.80;;;;;;4961539;28;20051;-78
2023/12/07 12:35:28;;;;;;;39.70;27.55;;;7.70;47.80;;;;;;4964038;28;20330;-78
2023/12/07 12:37:57;;;;;;;47.05;27.95;;;7.70;58.50;;;;;;4962910;28;20392;-78
2023/12/07 12:40:26;;;;;;;41.88;28.25;;;7.70;46.10;;;;;;4964873;28;20066;-78